Time;durP1;ratioP1;P1;durP2;ratioP2;P2;SDS_P1;SDS_P2;PMS_P1;PMS_P2;Temp;Humidity;BMP_temperature;BMP_pressure;BME280_temperature;BME280_humidity;BME280_pressure;Samples;Min_cycle;Max_cycle;Signal;HPM_P1;HPM_P2
2021/10/17 00:00:18;;;;;;;17.08;7.97;;;;;;;;;;5035998;28;20517;-53
2021/10/17 00:02:44;;;;;;;14.45;5.80;;;;;;;;;;5035890;28;20028;-53
2021/10/17 00:05:11;;;;;;;15.52;6.95;;;;;;;;;;5035534;28;20033;-53
2021/10/17 00:07:37;;;;;;;13.48;6.57;;;;;;;;;;5036077;28;20045;-54
2021/10/17 00:10:04;;;;;;;18.30;7.90;;;;;;;;;;5036189;28;20099;-53
2021/10/17 00:12:30;;;;;;;15.88;7.57;;;;;;;;;;5036277;28;20117;-53
2021/10/17 00:14:56;;;;;;;13.82;7.13;;;;;;;;;;5035146;28;20398;-53
2021/10/17 00:17:22;;;;;;;17.65;6.93;;;;;;;;;;5035430;28;20029;-54
2021/10/17 00:19:48;;;;;;;15.75;7.25;;;;;;;;;;5036031;28;20083;-53
2021/10/17 00:22:14;;;;;;;14.18;7.10;;;;;;;;;;5035617;28;20025;-53
2021/10/17 00:24:40;;;;;;;14.95;6.95;;;;;;;;;;5034752;28;20478;-53
2021/10/17 00:27:06;;;;;;;18.23;7.78;;;;;;;;;;5035725;28;20018;-53
2021/10/17 00:29:32;;;;;;;15.18;7.03;;;;;;;;;;5035784;28;20029;-53
2021/10/17 00:32:00;;;;;;;15.35;6.53;;;;;;;;;;5035378;28;20108;-53
2021/10/17 00:34:26;;;;;;;15.98;7.10;;;;;;;;;;5034891;28;20400;-53
2021/10/17 00:36:52;;;;;;;14.82;6.10;;;;;;;;;;5035401;28;20108;-53
2021/10/17 00:39:18;;;;;;;14.48;6.55;;;;;;;;;;5035751;28;20046;-53
2021/10/17 00:41:45;;;;;;;20.27;7.95;;;;;;;;;;5035304;28;20022;-53
2021/10/17 00:44:18;;;;;;;16.83;7.90;;;;;;;;;;5034730;28;20264;-53
2021/10/17 00:46:44;;;;;;;14.00;6.95;;;;;;;;;;5034568;28;20282;-53
2021/10/17 00:49:10;;;;;;;18.42;8.02;;;;;;;;;;5035226;28;20128;-53
2021/10/17 00:51:36;;;;;;;20.33;7.65;;;;;;;;;;5034980;28;20436;-53
2021/10/17 00:54:02;;;;;;;14.75;6.47;;;;;;;;;;5034780;28;20146;-53
2021/10/17 00:56:28;;;;;;;13.57;6.80;;;;;;;;;;5035285;28;20017;-53
2021/10/17 00:58:54;;;;;;;14.98;7.30;;;;;;;;;;5035287;28;20109;-53
2021/10/17 01:01:21;;;;;;;19.00;8.23;;;;;;;;;;5034704;28;20116;-53
2021/10/17 01:03:46;;;;;;;15.90;6.00;;;;;;;;;;5034493;28;20026;-54
2021/10/17 01:06:13;;;;;;;16.65;7.53;;;;;;;;;;5035160;28;20037;-53
2021/10/17 01:08:39;;;;;;;10.75;6.38;;;;;;;;;;5035085;28;20036;-53
2021/10/17 01:11:06;;;;;;;13.32;7.28;;;;;;;;;;5035114;28;20108;-53
2021/10/17 01:13:32;;;;;;;13.88;7.22;;;;;;;;;;5033910;28;20032;-53
2021/10/17 01:15:58;;;;;;;12.70;6.35;;;;;;;;;;5034502;28;20033;-53
2021/10/17 01:18:25;;;;;;;13.75;6.60;;;;;;;;;;5035051;28;20021;-53
2021/10/17 01:20:51;;;;;;;14.02;7.00;;;;;;;;;;5034642;28;20082;-53
2021/10/17 01:23:18;;;;;;;16.75;6.60;;;;;;;;;;5034485;28;20025;-53
2021/10/17 01:25:45;;;;;;;10.15;5.68;;;;;;;;;;5033882;28;20022;-53
2021/10/17 01:28:11;;;;;;;14.70;7.45;;;;;;;;;;5034749;28;20325;-53
2021/10/17 01:30:37;;;;;;;13.50;6.90;;;;;;;;;;5034470;28;20371;-53
2021/10/17 01:33:03;;;;;;;16.52;7.43;;;;;;;;;;5034651;28;20052;-53
2021/10/17 01:35:29;;;;;;;13.98;6.88;;;;;;;;;;5033446;28;20021;-53
2021/10/17 01:37:55;;;;;;;11.65;6.22;;;;;;;;;;5034490;28;20032;-53
2021/10/17 01:40:22;;;;;;;12.80;6.00;;;;;;;;;;5034373;28;20033;-53
2021/10/17 01:42:48;;;;;;;15.43;6.35;;;;;;;;;;5033356;28;20025;-53
2021/10/17 01:45:14;;;;;;;14.40;7.25;;;;;;;;;;5033556;28;20033;-53
2021/10/17 01:47:48;;;;;;;17.80;6.93;;;;;;;;;;5034455;28;20029;-53
2021/10/17 01:50:14;;;;;;;13.48;6.32;;;;;;;;;;5034170;28;20455;-53
2021/10/17 01:52:40;;;;;;;14.15;7.13;;;;;;;;;;5033810;28;20466;-53
2021/10/17 01:55:06;;;;;;;11.65;5.80;;;;;;;;;;5033296;28;20025;-53
2021/10/17 01:57:32;;;;;;;12.80;6.38;;;;;;;;;;5033948;28;20121;-53
2021/10/17 01:59:58;;;;;;;13.07;6.20;;;;;;;;;;5034168;28;20083;-53
2021/10/17 02:02:25;;;;;;;16.70;6.80;;;;;;;;;;5033758;28;20029;-53
2021/10/17 02:04:51;;;;;;;12.27;6.35;;;;;;;;;;5033188;28;20100;-53
2021/10/17 02:07:17;;;;;;;19.67;8.07;;;;;;;;;;5033747;28;20022;-53
2021/10/17 02:09:43;;;;;;;18.58;6.53;;;;;;;;;;5034117;28;20056;-53
2021/10/17 02:12:09;;;;;;;12.60;5.68;;;;;;;;;;5033118;28;20046;-53
2021/10/17 02:14:36;;;;;;;15.73;7.05;;;;;;;;;;5033130;28;20117;-53
2021/10/17 02:17:02;;;;;;;8.30;5.15;;;;;;;;;;5033642;28;20022;-53
2021/10/17 02:19:28;;;;;;;12.18;6.45;;;;;;;;;;5033909;28;20041;-53
2021/10/17 02:21:54;;;;;;;15.10;5.55;;;;;;;;;;5033273;28;20025;-53
2021/10/17 02:24:20;;;;;;;12.27;4.93;;;;;;;;;;5032435;28;20447;-53
2021/10/17 02:26:46;;;;;;;12.88;5.65;;;;;;;;;;5033537;28;20025;-53
2021/10/17 02:29:12;;;;;;;12.23;5.13;;;;;;;;;;5033646;28;20024;-53
2021/10/17 02:31:38;;;;;;;11.80;5.75;;;;;;;;;;5032989;28;20034;-53
2021/10/17 02:34:04;;;;;;;14.18;5.97;;;;;;;;;;5032941;28;20045;-53
2021/10/17 02:36:30;;;;;;;15.10;6.13;;;;;;;;;;5033251;28;20099;-53
2021/10/17 02:38:56;;;;;;;12.30;6.03;;;;;;;;;;5033251;28;20037;-53
2021/10/17 02:41:23;;;;;;;15.57;6.50;;;;;;;;;;5032852;28;20044;-53
2021/10/17 02:43:49;;;;;;;12.82;5.90;;;;;;;;;;5032791;28;20124;-53
2021/10/17 02:46:15;;;;;;;14.38;6.47;;;;;;;;;;5033107;28;20499;-53
2021/10/17 02:48:42;;;;;;;11.55;6.00;;;;;;;;;;5033030;28;20057;-53
2021/10/17 02:51:08;;;;;;;13.88;6.05;;;;;;;;;;5033089;28;20029;-53
2021/10/17 02:53:34;;;;;;;14.40;5.88;;;;;;;;;;5032078;28;20436;-53
2021/10/17 02:56:00;;;;;;;10.38;5.40;;;;;;;;;;5031663;28;20037;-53
2021/10/17 02:58:27;;;;;;;12.77;5.75;;;;;;;;;;5039860;28;20013;-53
2021/10/17 03:00:53;;;;;;;14.48;6.45;;;;;;;;;;5031945;28;20073;-53
2021/10/17 03:03:19;;;;;;;15.10;5.65;;;;;;;;;;5032674;28;20022;-53
2021/10/17 03:05:45;;;;;;;13.85;4.88;;;;;;;;;;5032005;28;20022;-53
2021/10/17 03:08:11;;;;;;;12.07;5.97;;;;;;;;;;5032861;28;20032;-53
2021/10/17 03:10:37;;;;;;;10.93;5.85;;;;;;;;;;5032915;28;20029;-53
2021/10/17 03:13:03;;;;;;;13.70;5.22;;;;;;;;;;5032542;28;20362;-53
2021/10/17 03:15:29;;;;;;;13.65;5.55;;;;;;;;;;5032188;28;20075;-53
2021/10/17 03:17:55;;;;;;;12.68;6.20;;;;;;;;;;5032700;28;20029;-53
2021/10/17 03:20:22;;;;;;;15.48;6.15;;;;;;;;;;5032377;28;20464;-53
2021/10/17 03:22:48;;;;;;;14.05;5.97;;;;;;;;;;5033162;28;20061;-53
2021/10/17 03:25:14;;;;;;;12.23;6.03;;;;;;;;;;5031503;28;20103;-54
2021/10/17 03:27:40;;;;;;;14.10;6.70;;;;;;;;;;5032975;28;20021;-53
2021/10/17 03:30:07;;;;;;;12.05;5.72;;;;;;;;;;5032521;28;20039;-53
2021/10/17 03:32:33;;;;;;;12.88;6.10;;;;;;;;;;5032754;28;20033;-53
2021/10/17 03:35:03;;;;;;;11.13;5.43;;;;;;;;;;5032062;28;20025;-53
2021/10/17 03:37:29;;;;;;;12.25;6.03;;;;;;;;;;5032524;28;20032;-53
2021/10/17 03:39:55;;;;;;;19.73;6.93;;;;;;;;;;5032680;28;20041;-53
2021/10/17 03:42:21;;;;;;;14.98;6.22;;;;;;;;;;5032155;28;20028;-53
2021/10/17 03:44:47;;;;;;;12.32;5.90;;;;;;;;;;5031439;28;20038;-53
2021/10/17 03:47:13;;;;;;;13.60;5.80;;;;;;;;;;5032942;28;20021;-53
2021/10/17 03:49:40;;;;;;;12.50;5.45;;;;;;;;;;5032465;28;20444;-53
2021/10/17 03:52:06;;;;;;;14.05;5.82;;;;;;;;;;5032514;28;20455;-53
2021/10/17 03:54:32;;;;;;;9.43;5.18;;;;;;;;;;5031950;28;20033;-53
2021/10/17 03:56:58;;;;;;;13.85;6.38;;;;;;;;;;5032029;28;20143;-54
2021/10/17 03:59:24;;;;;;;10.63;5.30;;;;;;;;;;5032604;28;20030;-53
2021/10/17 04:01:50;;;;;;;11.48;5.82;;;;;;;;;;5032570;28;20017;-53
2021/10/17 04:04:16;;;;;;;11.57;4.90;;;;;;;;;;5031674;28;20443;-53
2021/10/17 04:06:42;;;;;;;8.15;5.00;;;;;;;;;;5033255;28;20045;-53
2021/10/17 04:09:09;;;;;;;11.38;5.45;;;;;;;;;;5036173;28;20025;-53
2021/10/17 04:11:35;;;;;;;13.45;5.93;;;;;;;;;;5035583;28;20037;-53
2021/10/17 04:14:01;;;;;;;9.90;5.30;;;;;;;;;;5035254;28;20355;-53
2021/10/17 04:16:27;;;;;;;10.60;4.45;;;;;;;;;;5036070;28;20071;-53
2021/10/17 04:18:53;;;;;;;12.23;5.18;;;;;;;;;;5036097;28;20030;-53
2021/10/17 04:21:19;;;;;;;12.85;4.97;;;;;;;;;;5035653;28;20021;-53
2021/10/17 04:23:45;;;;;;;11.45;5.32;;;;;;;;;;5035244;28;20025;-53
2021/10/17 04:26:11;;;;;;;9.02;4.45;;;;;;;;;;5035370;28;20035;-53
2021/10/17 04:28:37;;;;;;;10.18;4.95;;;;;;;;;;5036005;28;20021;-53
2021/10/17 04:31:03;;;;;;;10.05;4.65;;;;;;;;;;5035655;28;20064;-53
2021/10/17 04:33:29;;;;;;;12.55;5.10;;;;;;;;;;5034688;28;20057;-53
2021/10/17 04:35:55;;;;;;;8.40;4.78;;;;;;;;;;5035989;28;20052;-53
2021/10/17 04:38:21;;;;;;;8.18;4.65;;;;;;;;;;5035510;28;20467;-53
2021/10/17 04:40:47;;;;;;;11.07;4.72;;;;;;;;;;5035194;28;20072;-53
2021/10/17 04:43:13;;;;;;;10.98;4.82;;;;;;;;;;5035198;28;20159;-53
2021/10/17 04:45:41;;;;;;;9.85;4.80;;;;;;;;;;5034628;28;20367;-53
2021/10/17 04:48:07;;;;;;;12.98;5.50;;;;;;;;;;5035809;28;20022;-53
2021/10/17 04:50:33;;;;;;;11.43;5.28;;;;;;;;;;5034915;28;20436;-53
2021/10/17 04:52:59;;;;;;;9.60;4.78;;;;;;;;;;5034944;28;20022;-53
2021/10/17 04:55:25;;;;;;;10.98;5.72;;;;;;;;;;5034261;28;20037;-53
2021/10/17 04:57:51;;;;;;;11.73;5.57;;;;;;;;;;5035171;28;20026;-53
2021/10/17 05:00:17;;;;;;;14.73;5.45;;;;;;;;;;5035232;28;20428;-53
2021/10/17 05:02:43;;;;;;;16.70;5.85;;;;;;;;;;5035027;28;20022;-52
2021/10/17 05:05:09;;;;;;;10.75;4.60;;;;;;;;;;5034561;28;20431;-53
2021/10/17 05:07:35;;;;;;;10.13;5.00;;;;;;;;;;5034828;28;20083;-53
2021/10/17 05:10:01;;;;;;;9.40;4.65;;;;;;;;;;5034730;28;20026;-53
2021/10/17 05:12:27;;;;;;;9.30;4.65;;;;;;;;;;5035086;28;20036;-53
2021/10/17 05:14:53;;;;;;;9.52;4.78;;;;;;;;;;5033728;28;20079;-53
2021/10/17 05:17:19;;;;;;;12.13;4.85;;;;;;;;;;5034758;28;20509;-53
2021/10/17 05:19:45;;;;;;;7.30;4.30;;;;;;;;;;5033615;28;20034;-53
2021/10/17 05:22:11;;;;;;;11.85;5.28;;;;;;;;;;5034178;28;20017;-53
2021/10/17 05:24:37;;;;;;;8.55;4.15;;;;;;;;;;5034123;28;20104;-53
2021/10/17 05:27:03;;;;;;;10.00;4.80;;;;;;;;;;5034775;28;20029;-53
2021/10/17 05:29:29;;;;;;;7.47;3.97;;;;;;;;;;5034233;28;20033;-54
2021/10/17 05:31:55;;;;;;;11.73;4.18;;;;;;;;;;5034523;28;20041;-53
2021/10/17 05:34:21;;;;;;;10.75;4.88;;;;;;;;;;5033833;28;20079;-53
2021/10/17 05:36:47;;;;;;;11.27;4.95;;;;;;;;;;5034133;28;20383;-53
2021/10/17 05:39:13;;;;;;;16.42;6.30;;;;;;;;;;5034673;28;20021;-53
2021/10/17 05:41:39;;;;;;;15.55;6.25;;;;;;;;;;5034236;28;20036;-53
2021/10/17 05:44:06;;;;;;;12.07;4.95;;;;;;;;;;5033513;28;20426;-53
2021/10/17 05:46:32;;;;;;;13.48;5.55;;;;;;;;;;5033719;28;20029;-53
2021/10/17 05:48:58;;;;;;;12.15;5.60;;;;;;;;;;5034525;28;20029;-53
2021/10/17 05:51:24;;;;;;;18.15;7.15;;;;;;;;;;5033752;28;20045;-54
2021/10/17 05:53:50;;;;;;;18.73;6.80;;;;;;;;;;5033249;28;20037;-53
2021/10/17 05:56:16;;;;;;;18.10;6.78;;;;;;;;;;5034241;28;20022;-52
2021/10/17 05:58:42;;;;;;;13.43;5.57;;;;;;;;;;5034095;28;20037;-53
2021/10/17 06:01:08;;;;;;;13.05;5.57;;;;;;;;;;5034196;28;20432;-53
2021/10/17 06:03:34;;;;;;;17.73;6.65;;;;;;;;;;5033426;28;20208;-53
2021/10/17 06:06:01;;;;;;;14.88;6.55;;;;;;;;;;5033236;28;20044;-53
2021/10/17 06:08:28;;;;;;;14.57;6.13;;;;;;;;;;5034388;28;20033;-53
2021/10/17 06:10:54;;;;;;;18.38;6.38;;;;;;;;;;5033842;28;20091;-53
2021/10/17 06:13:21;;;;;;;19.92;6.88;;;;;;;;;;5033811;28;20032;-53
2021/10/17 06:15:47;;;;;;;18.05;6.80;;;;;;;;;;5032874;28;20052;-53
2021/10/17 06:18:13;;;;;;;18.30;7.53;;;;;;;;;;5033634;28;20025;-53
2021/10/17 06:20:39;;;;;;;14.25;6.15;;;;;;;;;;5033762;28;20033;-53
2021/10/17 06:23:05;;;;;;;16.25;6.43;;;;;;;;;;5033605;28;20026;-54
2021/10/17 06:25:31;;;;;;;13.90;6.05;;;;;;;;;;5033044;28;20032;-53
2021/10/17 06:27:57;;;;;;;18.70;7.25;;;;;;;;;;5033428;28;20029;-53
2021/10/17 06:30:23;;;;;;;18.33;6.57;;;;;;;;;;5033257;28;20049;-53
2021/10/17 06:32:49;;;;;;;16.58;7.20;;;;;;;;;;5033261;28;20028;-53
2021/10/17 06:35:15;;;;;;;18.95;7.10;;;;;;;;;;5032389;28;20031;-53
2021/10/17 06:37:41;;;;;;;22.02;6.63;;;;;;;;;;5033522;28;20101;-53
2021/10/17 06:40:07;;;;;;;13.35;5.47;;;;;;;;;;5033488;28;20049;-53
2021/10/17 06:42:34;;;;;;;15.90;6.57;;;;;;;;;;5032910;28;20462;-53
2021/10/17 06:45:00;;;;;;;20.45;6.85;;;;;;;;;;5032743;28;20026;-53
2021/10/17 06:47:26;;;;;;;20.92;7.28;;;;;;;;;;5032861;28;20183;-53
2021/10/17 06:49:52;;;;;;;14.48;5.75;;;;;;;;;;5032852;28;20029;-54
2021/10/17 06:52:17;;;;;;;14.82;5.78;;;;;;;;;;5033357;28;20025;-53
2021/10/17 06:54:43;;;;;;;22.48;7.88;;;;;;;;;;5032125;28;20036;-53
2021/10/17 06:57:09;;;;;;;16.17;5.90;;;;;;;;;;5033523;28;20028;-53
2021/10/17 06:59:35;;;;;;;18.90;6.65;;;;;;;;;;5033080;28;20109;-53
2021/10/17 07:02:02;;;;;;;13.30;6.40;;;;;;;;;;5032937;28;20063;-53
2021/10/17 07:04:28;;;;;;;13.88;5.80;;;;;;;;;;5032106;28;20029;-53
2021/10/17 07:06:54;;;;;;;16.17;7.38;;;;;;;;;;5033191;28;20013;-53
2021/10/17 07:09:20;;;;;;;22.25;7.07;;;;;;;;;;5033355;28;20026;-54
2021/10/17 07:11:46;;;;;;;17.92;6.93;;;;;;;;;;5032494;28;20100;-53
2021/10/17 07:14:11;;;;;;;15.07;5.38;;;;;;;;;;5032355;28;20076;-53
2021/10/17 07:16:37;;;;;;;12.02;5.85;;;;;;;;;;5032987;28;20026;-54
2021/10/17 07:19:03;;;;;;;10.48;5.15;;;;;;;;;;5032278;28;20333;-54
2021/10/17 07:21:29;;;;;;;16.00;6.18;;;;;;;;;;5032729;28;20117;-54
2021/10/17 07:23:55;;;;;;;12.52;5.30;;;;;;;;;;5032015;28;20176;-54
2021/10/17 07:26:21;;;;;;;15.40;6.63;;;;;;;;;;5032803;28;20029;-53
2021/10/17 07:28:47;;;;;;;15.60;6.25;;;;;;;;;;5032616;28;20025;-54
2021/10/17 07:31:13;;;;;;;14.35;6.70;;;;;;;;;;5032365;28;20116;-53
2021/10/17 07:33:40;;;;;;;13.45;5.95;;;;;;;;;;5031639;28;20114;-54
2021/10/17 07:36:07;;;;;;;16.15;5.45;;;;;;;;;;5032676;28;20032;-54
2021/10/17 07:38:33;;;;;;;14.50;6.22;;;;;;;;;;5032760;28;20034;-53
2021/10/17 07:40:59;;;;;;;11.40;5.72;;;;;;;;;;5032822;28;20132;-53
2021/10/17 07:43:25;;;;;;;16.23;6.40;;;;;;;;;;5036098;28;20049;-54
2021/10/17 07:45:51;;;;;;;18.30;7.38;;;;;;;;;;5036349;28;20421;-54
2021/10/17 07:48:17;;;;;;;14.60;4.90;;;;;;;;;;5036438;28;20033;-53
2021/10/17 07:50:43;;;;;;;12.80;4.88;;;;;;;;;;5036755;28;20053;-54
2021/10/17 07:53:09;;;;;;;10.98;4.88;;;;;;;;;;5036263;28;20084;-53
2021/10/17 07:55:35;;;;;;;12.20;5.95;;;;;;;;;;5035233;28;20459;-53
2021/10/17 07:58:01;;;;;;;11.57;5.22;;;;;;;;;;5036686;28;20120;-54
2021/10/17 08:00:30;;;;;;;11.40;5.00;;;;;;;;;;5036549;28;20041;-53
2021/10/17 08:02:56;;;;;;;12.40;5.57;;;;;;;;;;5035653;28;20029;-54
2021/10/17 08:05:22;;;;;;;17.33;7.68;;;;;;;;;;5035612;28;20474;-53
2021/10/17 08:07:49;;;;;;;12.55;5.55;;;;;;;;;;5036041;28;20109;-54
2021/10/17 08:10:15;;;;;;;18.52;6.35;;;;;;;;;;5036280;28;20529;-54
2021/10/17 08:12:41;;;;;;;18.42;6.57;;;;;;;;;;5035784;28;20072;-53
2021/10/17 08:15:09;;;;;;;14.82;6.78;;;;;;;;;;5035125;28;20083;-53
2021/10/17 08:17:35;;;;;;;17.48;6.95;;;;;;;;;;5035525;28;20510;-53
2021/10/17 08:20:01;;;;;;;18.02;7.60;;;;;;;;;;5036168;28;20042;-53
2021/10/17 08:22:27;;;;;;;15.45;6.78;;;;;;;;;;5035682;28;20036;-53
2021/10/17 08:24:53;;;;;;;18.13;6.55;;;;;;;;;;5035000;28;20022;-54
2021/10/17 08:27:19;;;;;;;17.02;5.65;;;;;;;;;;5035632;28;20028;-54
2021/10/17 08:29:46;;;;;;;17.08;6.30;;;;;;;;;;5035719;28;20035;-54
2021/10/17 08:32:12;;;;;;;15.48;7.07;;;;;;;;;;5035710;28;20032;-53
2021/10/17 08:34:38;;;;;;;20.77;8.20;;;;;;;;;;5035185;28;20057;-53
2021/10/17 08:37:04;;;;;;;20.02;7.65;;;;;;;;;;5035953;28;20471;-54
2021/10/17 08:39:30;;;;;;;16.90;6.43;;;;;;;;;;5035248;28;20040;-54
2021/10/17 08:41:56;;;;;;;14.93;6.72;;;;;;;;;;5035632;28;20330;-54
2021/10/17 08:44:22;;;;;;;14.60;6.88;;;;;;;;;;5034507;28;20049;-54
2021/10/17 08:46:50;;;;;;;17.92;7.25;;;;;;;;;;5035552;28;20522;-54
2021/10/17 08:49:18;;;;;;;12.10;5.78;;;;;;;;;;5034816;28;20025;-53
2021/10/17 08:51:44;;;;;;;13.40;5.57;;;;;;;;;;5035657;28;20026;-53
2021/10/17 08:54:11;;;;;;;11.55;5.85;;;;;;;;;;5034684;28;20351;-53
2021/10/17 08:56:36;;;;;;;12.07;5.60;;;;;;;;;;5035558;28;20025;-54
2021/10/17 08:59:03;;;;;;;18.13;6.63;;;;;;;;;;5034506;28;20356;-53
2021/10/17 09:01:33;;;;;;;14.60;6.45;;;;;;;;;;5035366;28;20034;-53
2021/10/17 09:03:59;;;;;;;;;;;;;;;;;;5034836;28;20079;-54
2021/10/17 09:06:30;;;;;;;11.10;5.80;;;;;;;;;;5035441;28;19905;-54
2021/10/17 09:09:12;;;;;;;10.43;4.95;;;;;;;;;;5035174;28;20037;-54
2021/10/17 09:11:41;;;;;;;13.50;5.40;;;;;;;;;;5034941;28;20018;-54
2021/10/17 09:14:09;;;;;;;13.52;5.97;;;;;;;;;;5034219;28;20086;-54
2021/10/17 09:16:36;;;;;;;11.40;4.43;;;;;;;;;;5035373;28;20048;-54
2021/10/17 09:19:09;;;;;;;11.45;5.50;;;;;;;;;;5034494;28;20460;-54
2021/10/17 09:21:35;;;;;;;13.23;5.07;;;;;;;;;;5035057;28;20056;-54
2021/10/17 09:24:01;;;;;;;14.65;6.00;;;;;;;;;;5033628;28;20033;-54
2021/10/17 09:26:27;;;;;;;16.23;6.43;;;;;;;;;;5034918;28;20026;-54
2021/10/17 09:28:53;;;;;;;17.67;6.93;;;;;;;;;;5035011;28;20036;-54
2021/10/17 09:31:20;;;;;;;12.13;5.85;;;;;;;;;;5034513;28;20034;-54
2021/10/17 09:33:57;;;;;;;16.90;6.43;;;;;;;;;;5033953;28;20017;-53
2021/10/17 09:36:28;;;;;;;17.40;6.53;;;;;;;;;;5034245;28;20109;-54
2021/10/17 09:38:59;;;;;;;14.40;6.97;;;;;;;;;;5034262;28;20084;-53
2021/10/17 09:41:34;;;;;;;12.85;6.13;;;;;;;;;;5034191;28;20087;-53
2021/10/17 09:44:01;;;;;;;13.93;6.10;;;;;;;;;;5033948;28;20096;-54
2021/10/17 09:46:27;;;;;;;18.23;6.97;;;;;;;;;;5034530;28;20025;-54
2021/10/17 09:48:53;;;;;;;18.35;7.55;;;;;;;;;;5034039;28;20079;-53
2021/10/17 09:51:24;;;;;;;17.98;9.13;;;;;;;;;;5034223;28;20465;-54
2021/10/17 09:53:54;;;;;;;19.90;7.95;;;;;;;;;;5033209;28;20028;-53
2021/10/17 09:56:20;;;;;;;;;;;;;;;;;;5034598;28;20032;-53
2021/10/17 09:58:46;;;;;;;25.13;7.97;;;;;;;;;;5034019;28;20008;-54
2021/10/17 10:01:12;;;;;;;20.40;7.38;;;;;;;;;;5034054;28;20041;-54
2021/10/17 10:03:38;;;;;;;19.65;7.57;;;;;;;;;;5032789;28;20121;-54
2021/10/17 10:06:05;;;;;;;16.98;6.78;;;;;;;;;;5033556;28;20443;-53
2021/10/17 10:08:31;;;;;;;30.15;9.77;;;;;;;;;;5033740;28;20447;-53
2021/10/17 10:10:57;;;;;;;35.38;12.70;;;;;;;;;;5033706;28;20018;-54
2021/10/17 10:13:24;;;;;;;25.90;10.93;;;;;;;;;;5034071;28;20037;-54
2021/10/17 10:15:50;;;;;;;33.30;12.75;;;;;;;;;;5032995;28;20440;-53
2021/10/17 10:18:18;;;;;;;28.85;10.85;;;;;;;;;;5033664;28;20060;-53
2021/10/17 10:20:43;;;;;;;20.60;9.10;;;;;;;;;;5033250;28;20444;-53
2021/10/17 10:23:11;;;;;;;16.55;8.40;;;;;;;;;;5033544;28;20032;-53
2021/10/17 10:25:38;;;;;;;28.15;9.65;;;;;;;;;;5032778;28;20078;-54
2021/10/17 10:28:07;;;;;;;22.05;8.82;;;;;;;;;;5033671;28;20021;-54
2021/10/17 10:30:34;;;;;;;22.02;8.98;;;;;;;;;;5033003;28;20446;-53
2021/10/17 10:33:05;;;;;;;23.17;9.30;;;;;;;;;;5033398;28;20418;-54
2021/10/17 10:35:31;;;;;;;25.38;8.98;;;;;;;;;;5032943;28;20026;-54
2021/10/17 10:37:58;;;;;;;22.58;8.73;;;;;;;;;;5033212;28;20469;-53
2021/10/17 10:40:24;;;;;;;26.10;9.68;;;;;;;;;;5033018;28;20061;-54
2021/10/17 10:42:51;;;;;;;26.17;8.85;;;;;;;;;;5033717;28;20026;-53
2021/10/17 10:45:24;;;;;;;26.15;9.82;;;;;;;;;;5032086;28;20032;-53
2021/10/17 10:48:09;;;;;;;26.23;8.95;;;;;;;;;;5033448;28;20017;-53
2021/10/17 10:50:36;;;;;;;25.10;9.43;;;;;;;;;;5032942;28;20052;-54
2021/10/17 10:53:02;;;;;;;23.63;9.80;;;;;;;;;;5033152;28;20408;-54
2021/10/17 10:55:48;;;;;;;18.73;8.20;;;;;;;;;;5032152;28;20072;-54
2021/10/17 10:58:23;;;;;;;33.72;11.60;;;;;;;;;;5033592;28;20022;-53
2021/10/17 11:00:49;;;;;;;34.38;12.98;;;;;;;;;;5032853;28;20029;-53
2021/10/17 11:03:16;;;;;;;28.13;10.80;;;;;;;;;;5033070;28;20033;-54
2021/10/17 11:06:01;;;;;;;26.15;10.45;;;;;;;;;;5032136;28;20103;-53
2021/10/17 11:08:27;;;;;;;27.02;10.30;;;;;;;;;;5033357;28;20289;-53
2021/10/17 11:10:53;;;;;;;20.45;9.27;;;;;;;;;;5032654;28;20160;-53
2021/10/17 11:13:38;;;;;;;22.58;8.55;;;;;;;;;;5032744;28;20033;-53
2021/10/17 11:16:06;;;;;;;27.52;11.70;;;;;;;;;;5032421;28;20340;-53
2021/10/17 11:18:33;;;;;;;27.63;10.93;;;;;;;;;;5032791;28;20300;-53
2021/10/17 11:21:00;;;;;;;19.42;7.30;;;;;;;;;;5032370;28;20483;-53
2021/10/17 11:23:26;;;;;;;17.80;8.88;;;;;;;;;;5032311;28;20029;-54
2021/10/17 11:25:53;;;;;;;16.88;7.05;;;;;;;;;;5032434;28;20030;-54
2021/10/17 11:28:19;;;;;;;21.30;9.23;;;;;;;;;;5032895;28;20021;-53
2021/10/17 11:30:45;;;;;;;20.88;9.18;;;;;;;;;;5032585;28;20044;-53
2021/10/17 11:33:21;;;;;;;21.15;8.73;;;;;;;;;;5032457;28;20036;-53
2021/10/17 11:35:48;;;;;;;22.63;9.13;;;;;;;;;;5032143;28;20025;-55
2021/10/17 11:38:15;;;;;;;16.90;8.15;;;;;;;;;;5032647;28;20028;-53
2021/10/17 11:40:42;;;;;;;21.85;8.13;;;;;;;;;;5032623;28;20099;-53
2021/10/17 11:43:08;;;;;;;19.33;7.80;;;;;;;;;;5032653;28;20443;-53
2021/10/17 11:45:36;;;;;;;23.08;10.20;;;;;;;;;;5031901;28;20032;-54
2021/10/17 11:48:03;;;;;;;19.40;8.25;;;;;;;;;;5032662;28;20049;-54
2021/10/17 11:50:31;;;;;;;19.60;8.77;;;;;;;;;;5032783;28;20105;-54
2021/10/17 11:53:01;;;;;;;34.85;11.18;;;;;;;;;;5032615;28;20025;-53
2021/10/17 11:55:29;;;;;;;22.98;9.68;;;;;;;;;;5031527;28;20440;-53
2021/10/17 11:57:55;;;;;;;18.75;9.35;;;;;;;;;;5032244;28;20033;-53
2021/10/17 12:00:28;;;;;;;24.55;9.52;;;;;;;;;;5032551;28;20164;-53
2021/10/17 12:02:54;;;;;;;19.60;9.32;;;;;;;;;;5032633;28;20098;-53
2021/10/17 12:05:25;;;;;;;27.08;9.73;;;;;;;;;;5031771;28;20026;-54
2021/10/17 12:07:55;;;;;;;28.27;10.45;;;;;;;;;;5032377;28;20022;-53
2021/10/17 12:10:21;;;;;;;22.90;10.38;;;;;;;;;;5032732;28;20034;-54
2021/10/17 12:12:48;;;;;;;23.33;10.68;;;;;;;;;;5032071;28;20030;-53
2021/10/17 12:15:15;;;;;;;21.20;9.65;;;;;;;;;;5031425;28;20022;-54
2021/10/17 12:17:41;;;;;;;21.88;10.43;;;;;;;;;;5032517;28;20240;-54
2021/10/17 12:20:10;;;;;;;18.35;9.60;;;;;;;;;;5032392;28;20116;-54
2021/10/17 12:22:46;;;;;;;28.50;10.10;;;;;;;;;;5031964;28;20348;-54
2021/10/17 12:25:12;;;;;;;17.70;8.75;;;;;;;;;;5030940;28;20045;-53
2021/10/17 12:27:39;;;;;;;20.02;8.63;;;;;;;;;;5033059;28;20060;-53
2021/10/17 12:30:07;;;;;;;22.33;10.90;;;;;;;;;;5035588;28;20444;-54
2021/10/17 12:32:46;;;;;;;26.30;9.15;;;;;;;;;;5035785;28;20463;-54
2021/10/17 12:35:21;;;;;;;20.10;10.55;;;;;;;;;;5034650;28;20021;-54
2021/10/17 12:37:47;;;;;;;26.10;11.55;;;;;;;;;;5035415;28;20022;-54
2021/10/17 12:40:13;;;;;;;19.15;8.75;;;;;;;;;;5035665;28;20050;-53
2021/10/17 12:42:45;;;;;;;26.73;10.95;;;;;;;;;;5035547;28;20439;-53
2021/10/17 12:45:14;;;;;;;29.13;11.55;;;;;;;;;;5034530;28;20038;-53
2021/10/17 12:47:51;;;;;;;26.38;10.70;;;;;;;;;;5035590;28;20436;-53
2021/10/17 12:50:18;;;;;;;24.10;8.95;;;;;;;;;;5034979;28;20104;-53
2021/10/17 12:52:57;;;;;;;18.38;8.52;;;;;;;;;;5035277;28;20029;-54
2021/10/17 12:55:27;;;;;;;21.10;8.60;;;;;;;;;;5034728;28;20064;-53
2021/10/17 12:58:03;;;;;;;26.05;10.73;;;;;;;;;;5035473;28;20026;-54
2021/10/17 13:00:29;;;;;;;18.38;8.20;;;;;;;;;;5034534;28;20048;-53
2021/10/17 13:03:11;;;;;;;20.73;8.98;;;;;;;;;;5035135;28;20359;-53
2021/10/17 13:05:46;;;;;;;18.63;8.35;;;;;;;;;;5034518;28;20017;-53
2021/10/17 13:08:12;;;;;;;22.35;9.50;;;;;;;;;;5035480;28;20022;-54
2021/10/17 13:10:38;;;;;;;18.30;7.65;;;;;;;;;;5034592;28;20355;-53
2021/10/17 13:13:13;;;;;;;19.75;7.93;;;;;;;;;;5034679;28;20025;-53
2021/10/17 13:15:39;;;;;;;24.85;8.35;;;;;;;;;;5034280;28;20057;-53
2021/10/17 13:18:06;;;;;;;33.63;10.00;;;;;;;;;;5035239;28;20027;-53
2021/10/17 13:20:38;;;;;;;21.63;9.20;;;;;;;;;;5034884;28;20044;-53
2021/10/17 13:23:04;;;;;;;22.48;7.70;;;;;;;;;;5035065;28;20032;-53
2021/10/17 13:25:32;;;;;;;29.00;11.32;;;;;;;;;;5033493;28;20033;-53
2021/10/17 13:27:59;;;;;;;20.60;8.77;;;;;;;;;;5034591;28;20033;-53
2021/10/17 13:30:25;;;;;;;19.48;9.02;;;;;;;;;;5034983;28;20056;-53
2021/10/17 13:32:51;;;;;;;22.00;9.05;;;;;;;;;;5034594;28;20021;-54
2021/10/17 13:35:18;;;;;;;21.55;8.85;;;;;;;;;;5033994;28;20041;-53
2021/10/17 13:37:44;;;;;;;20.55;9.18;;;;;;;;;;5034681;28;20123;-54
2021/10/17 13:40:10;;;;;;;22.45;10.77;;;;;;;;;;5033391;28;20037;-54
2021/10/17 13:42:38;;;;;;;24.30;9.88;;;;;;;;;;5034108;28;20022;-54
2021/10/17 13:45:04;;;;;;;25.55;10.40;;;;;;;;;;5033835;28;20040;-54
2021/10/17 13:47:30;;;;;;;21.52;8.40;;;;;;;;;;5034544;28;20049;-53
2021/10/17 13:49:56;;;;;;;19.83;8.02;;;;;;;;;;5034382;28;20470;-54
2021/10/17 13:52:22;;;;;;;20.98;8.73;;;;;;;;;;5034580;28;20017;-53
2021/10/17 13:54:48;;;;;;;20.10;9.23;;;;;;;;;;5033150;28;20108;-54
2021/10/17 13:57:14;;;;;;;21.05;9.48;;;;;;;;;;5034019;28;20064;-54
2021/10/17 13:59:40;;;;;;;23.52;9.95;;;;;;;;;;5034398;28;20030;-54
2021/10/17 14:02:06;;;;;;;15.80;7.95;;;;;;;;;;5033948;28;20447;-53
2021/10/17 14:04:32;;;;;;;24.23;8.77;;;;;;;;;;5033152;28;20021;-54
2021/10/17 14:06:58;;;;;;;14.55;7.07;;;;;;;;;;5034282;28;20072;-54
2021/10/17 14:09:25;;;;;;;20.52;9.10;;;;;;;;;;5033431;28;20109;-53
2021/10/17 14:11:51;;;;;;;20.70;9.40;;;;;;;;;;5033983;28;20124;-53
2021/10/17 14:14:17;;;;;;;18.83;8.85;;;;;;;;;;5033084;28;20036;-53
2021/10/17 14:16:44;;;;;;;22.40;8.82;;;;;;;;;;5033848;28;20034;-54
2021/10/17 14:19:10;;;;;;;21.30;9.07;;;;;;;;;;5033678;28;20064;-53
2021/10/17 14:21:36;;;;;;;19.25;8.75;;;;;;;;;;5033945;28;20053;-54
2021/10/17 14:24:02;;;;;;;20.65;8.85;;;;;;;;;;5032911;28;20431;-54
2021/10/17 14:26:28;;;;;;;38.55;14.30;;;;;;;;;;5033276;28;20025;-53
2021/10/17 14:28:54;;;;;;;17.60;8.38;;;;;;;;;;5033588;28;20028;-53